| time (UTC) | temp F | wind direction | speed knots | gust knots | rain 1hr in | rain 24hr in | rain mn in | humidity % | barometer mb |
| 20260507021605 | 52 | 0.0 | 0.0 | 0.00 | 0.00 | 0.00 | 93 | 1008.3 | |
| 20260507020604 | 52 | 0.0 | 0.0 | 0.00 | 0.00 | 0.00 | 92 | 1008.2 | |
| 20260507015604 | 52 | 0.0 | 0.0 | 0.00 | 0.00 | 0.00 | 92 | 1008.2 | |
| 20260507014604 | 52 | 0.0 | 0.0 | 0.00 | 0.00 | 0.00 | 92 | 1008.2 | |
| 20260507013604 | 52 | 0.0 | 0.0 | 0.00 | 0.00 | 0.00 | 92 | 1008.2 | |
| 20260507012604 | 52 | 0.0 | 0.0 | 0.00 | 0.00 | 0.00 | 93 | 1008.1 | |
| 20260507011604 | 52 | 0.0 | 0.0 | 0.00 | 0.00 | 0.00 | 92 | 1008.0 | |
| 20260507010604 | 52 | 0.0 | 0.0 | 0.00 | 0.00 | 0.00 | 91 | 1008.1 | |
| 20260507005604 | 52 | 0.0 | 0.0 | 0.00 | 0.00 | 0.00 | 91 | 1008.2 | |
| 20260507004604 | 51 | 0.0 | 0.0 | 0.00 | 0.00 | 0.00 | 91 | 1007.7 | |
| 20260507003605 | 51 | 0.0 | 0.0 | 0.00 | 0.00 | 0.00 | 92 | 1007.2 | |
| 20260507002604 | 51 | 0.0 | 0.0 | 0.00 | 0.00 | 0.00 | 92 | 1006.7 | |
| 20260507001604 | 51 | 0.0 | 0.0 | 0.00 | 0.00 | 0.00 | 92 | 1006.7 | |
| 20260507000604 | 51 | 0.0 | 0.0 | 0.00 | 0.00 | 0.00 | 92 | 1006.7 | |
| 20260506235609 | 51 | 0.0 | 0.0 | 0.00 | 0.00 | 0.00 | 92 | 1006.9 | |
| 20260506233605 | 51 | 0.0 | 0.0 | 0.00 | 0.00 | 0.00 | 92 | 1007.2 | |
| 20260506232605 | 52 | 0.0 | 0.0 | 0.00 | 0.00 | 0.00 | 91 | 1007.9 | |
| 20260506231605 | 52 | 0.0 | 0.0 | 0.00 | 0.00 | 0.00 | 91 | 1008.3 | |
| 20260506230604 | 52 | 0.0 | 0.0 | 0.00 | 0.00 | 0.00 | 91 | 1008.6 | |
| 20260506225604 | 52 | 0.0 | 0.0 | 0.00 | 0.00 | 0.00 | 92 | 1008.5 | |
| 20260506224604 | 52 | 0.0 | 0.0 | 0.00 | 0.00 | 0.00 | 92 | 1008.4 | |
| 20260506223605 | 52 | 0.0 | 0.0 | 0.00 | 0.00 | 0.00 | 92 | 1008.3 | |
| 20260506222605 | 52 | 0.0 | 0.0 | 0.00 | 0.00 | 0.00 | 92 | 1007.2 | |
| 20260506221604 | 52 | 0.0 | 0.0 | 0.00 | 0.00 | 0.00 | 92 | 1007.4 | |
| 20260506220604 | 52 | 0.0 | 0.0 | 0.00 | 0.00 | 0.00 | 92 | 1007.0 | |
| 20260506215604 | 52 | 0.0 | 0.0 | 0.00 | 0.00 | 0.00 | 91 | 1007.4 | |
| 20260506214605 | 52 | 0.0 | 0.0 | 0.00 | 0.00 | 0.00 | 91 | 1007.4 | |
| 20260506213605 | 52 | 0.0 | 0.0 | 0.00 | 0.00 | 0.00 | 90 | 1006.7 | |
| 20260506212604 | 52 | 0.0 | 0.0 | 0.00 | 0.00 | 0.00 | 90 | 1006.9 | |
| 20260506211604 | 52 | 0.0 | 0.0 | 0.00 | 0.00 | 0.00 | 90 | 1006.9 | |
| 20260506210604 | 52 | 0.0 | 0.0 | 0.00 | 0.00 | 0.00 | 91 | 1006.8 | |
| 20260506205605 | 52 | 0.0 | 0.0 | 0.00 | 0.00 | 0.00 | 90 | 1006.9 | |
| 20260506204605 | 52 | 0.0 | 0.0 | 0.00 | 0.00 | 0.00 | 91 | 1006.7 | |
| 20260506203605 | 53 | 0.0 | 0.0 | 0.00 | 0.00 | 0.00 | 90 | 1006.7 | |
| 20260506202605 | 53 | 0.0 | 0.0 | 0.00 | 0.00 | 0.00 | 90 | 1006.7 | |
| 20260506201604 | 53 | 0.0 | 0.0 | 0.00 | 0.00 | 0.00 | 90 | 1006.5 | |
| 20260506200605 | 53 | 0.0 | 0.0 | 0.00 | 0.00 | 0.00 | 90 | 1006.7 | |
| 20260506195605 | 53 | 0.0 | 0.0 | 0.00 | 0.00 | 0.00 | 90 | 1006.8 | |
| 20260506194605 | 53 | 0.0 | 0.0 | 0.00 | 0.00 | 0.00 | 88 | 1006.3 | |
| 20260506193604 | 53 | 0.0 | 0.0 | 0.00 | 0.00 | 0.00 | 89 | 1006.0 | |
| 20260506192605 | 54 | 0.0 | 0.0 | 0.00 | 0.00 | 0.00 | 88 | 1006.3 | |
| 20260506191605 | 53 | 0.0 | 0.0 | 0.00 | 0.00 | 0.00 | 90 | 1006.0 | |
| 20260506190604 | 54 | 0.0 | 0.0 | 0.00 | 0.00 | 0.00 | 88 | 1006.1 | |
| 20260506185605 | 54 | 0.0 | 0.0 | 0.00 | 0.00 | 0.00 | 88 | 1005.8 | |
| 20260506184605 | 54 | 0.0 | 0.0 | 0.00 | 0.00 | 0.00 | 87 | 1005.6 | |
| 20260506183604 | 54 | 0.0 | 0.0 | 0.00 | 0.00 | 0.00 | 89 | 1005.9 | |
| 20260506182605 | 55 | 0.0 | 0.0 | 0.00 | 0.00 | 0.00 | 87 | 1006.7 | |
| 20260506181604 | 55 | 0.0 | 0.0 | 0.00 | 0.00 | 0.00 | 87 | 1007.0 | |
| 20260506180605 | 56 | 0.0 | 0.0 | 0.00 | 0.00 | 0.00 | 85 | 1007.1 | |
| 20260506175605 | 56 | 0.0 | 0.0 | 0.00 | 0.00 | 0.00 | 86 | 1007.0 | |
| 20260506174605 | 56 | 0.0 | 0.0 | 0.00 | 0.00 | 0.00 | 85 | 1006.8 | |
| 20260506173604 | 57 | 0.0 | 0.0 | 0.00 | 0.00 | 0.00 | 84 | 1006.8 | |
| 20260506172604 | 57 | 0.0 | 0.0 | 0.00 | 0.00 | 0.00 | 83 | 1007.1 | |
| 20260506171605 | 57 | 0.0 | 0.0 | 0.00 | 0.00 | 0.00 | 80 | 1007.0 | |
| 20260506170605 | 58 | 0.0 | 0.0 | 0.00 | 0.00 | 0.00 | 78 | 1006.9 | |
| 20260506165604 | 59 | 0.0 | 0.0 | 0.00 | 0.00 | 0.00 | 73 | 1006.9 | |
| 20260506164604 | 62 | 0.0 | 0.0 | 0.00 | 0.00 | 0.00 | 68 | 1006.1 | |
| 20260506163605 | 63 | 0.0 | 0.0 | 0.00 | 0.00 | 0.00 | 62 | 1005.8 | |
| 20260506162604 | 64 | 0.0 | 0.0 | 0.00 | 0.00 | 0.00 | 59 | 1006.0 | |
| 20260506161605 | 64 | 0.0 | 0.0 | 0.00 | 0.00 | 0.00 | 58 | 1005.8 | |
| 20260506160604 | 66 | 0.0 | 0.0 | 0.00 | 0.00 | 0.00 | 54 | 1005.9 | |
| 20260506155604 | 66 | 0.0 | 0.0 | 0.00 | 0.00 | 0.00 | 51 | 1006.2 | |
| 20260506154605 | 66 | 0.0 | 0.0 | 0.00 | 0.00 | 0.00 | 49 | 1006.2 | |
| 20260506153604 | 66 | 0.0 | 0.0 | 0.00 | 0.00 | 0.00 | 47 | 1006.1 | |
| 20260506152604 | 67 | 0.0 | 0.0 | 0.00 | 0.00 | 0.00 | 47 | 1006.2 | |
| 20260506151609 | 66 | 0.0 | 0.0 | 0.00 | 0.00 | 0.00 | 48 | 1006.3 | |
| 20260506150602 | 67 | 0.0 | 0.0 | 0.00 | 0.00 | 0.00 | 47 | 1006.5 | |
| 20260506145602 | 66 | 0.0 | 0.0 | 0.00 | 0.00 | 0.00 | 49 | 1006.6 | |
| 20260506144602 | 68 | 0.0 | 0.0 | 0.00 | 0.00 | 0.00 | 45 | 1006.6 | |
| 20260506143602 | 68 | 0.0 | 0.0 | 0.00 | 0.00 | 0.00 | 46 | 1006.5 | |
| 20260506142602 | 69 | 0.0 | 0.0 | 0.00 | 0.00 | 0.00 | 45 | 1006.6 | |
| 20260506141602 | 69 | 0.0 | 0.0 | 0.00 | 0.00 | 0.00 | 46 | 1006.6 | |
| 20260506140602 | 67 | 0.0 | 0.0 | 0.00 | 0.00 | 0.00 | 47 | 1006.7 | |
| 20260506135602 | 69 | 0.0 | 0.0 | 0.00 | 0.00 | 0.00 | 45 | 1006.9 | |
| 20260506134602 | 69 | 0.0 | 0.0 | 0.00 | 0.00 | 0.00 | 46 | 1007.0 | |
| 20260506133602 | 68 | 0.0 | 0.0 | 0.00 | 0.00 | 0.00 | 49 | 1007.0 | |
| 20260506132602 | 66 | 0.0 | 0.0 | 0.00 | 0.00 | 0.00 | 50 | 1007.2 | |
| 20260506131602 | 64 | 0.0 | 0.0 | 0.00 | 0.00 | 0.00 | 55 | 1007.2 | |
| 20260506130602 | 64 | 0.0 | 0.0 | 0.00 | 0.00 | 0.00 | 56 | 1007.5 | |
| 20260506125602 | 65 | 0.0 | 0.0 | 0.00 | 0.00 | 0.00 | 54 | 1007.5 | |
| 20260506124602 | 65 | 0.0 | 0.0 | 0.00 | 0.00 | 0.00 | 54 | 1007.6 | |
| 20260506123602 | 66 | 0.0 | 0.0 | 0.00 | 0.00 | 0.00 | 53 | 1007.6 | |
| 20260506122602 | 65 | 0.0 | 0.0 | 0.00 | 0.00 | 0.00 | 53 | 1007.8 | |
| 20260506121602 | 65 | 0.0 | 0.0 | 0.00 | 0.00 | 0.00 | 54 | 1007.9 | |
| 20260506120602 | 64 | 0.0 | 0.0 | 0.00 | 0.00 | 0.00 | 55 | 1007.8 | |
| 20260506115602 | 64 | 0.0 | 0.0 | 0.00 | 0.00 | 0.00 | 56 | 1007.7 | |
| 20260506114602 | 62 | 0.0 | 0.0 | 0.00 | 0.00 | 0.00 | 56 | 1007.8 | |
| 20260506113602 | 62 | 0.0 | 0.0 | 0.00 | 0.00 | 0.00 | 60 | 1007.9 | |
| 20260506112602 | 61 | 0.0 | 0.0 | 0.00 | 0.00 | 0.00 | 61 | 1007.9 | |
| 20260506111602 | 61 | 0.0 | 0.0 | 0.00 | 0.00 | 0.00 | 64 | 1007.9 | |
| 20260506110602 | 61 | 0.0 | 0.0 | 0.00 | 0.00 | 0.00 | 62 | 1008.0 | |
| 20260506105602 | 61 | 0.0 | 0.0 | 0.00 | 0.00 | 0.00 | 63 | 1008.0 | |
| 20260506104602 | 61 | 0.0 | 0.0 | 0.00 | 0.00 | 0.00 | 62 | 1007.9 | |
| 20260506103602 | 61 | 0.0 | 0.0 | 0.00 | 0.00 | 0.00 | 64 | 1007.9 | |
| 20260506102602 | 60 | 0.0 | 0.0 | 0.00 | 0.00 | 0.00 | 65 | 1007.8 | |
| 20260506101602 | 61 | 0.0 | 0.0 | 0.00 | 0.00 | 0.00 | 63 | 1008.0 | |
| 20260506100602 | 59 | 0.0 | 0.0 | 0.00 | 0.00 | 0.00 | 67 | 1007.9 | |
| 20260506095602 | 58 | 0.0 | 0.0 | 0.00 | 0.00 | 0.00 | 70 | 1007.9 | |
| 20260506094602 | 58 | 0.0 | 0.0 | 0.00 | 0.00 | 0.00 | 70 | 1007.8 | |
| 20260506093602 | 57 | 0.0 | 0.0 | 0.00 | 0.00 | 0.00 | 69 | 1007.6 | |
| 20260506092602 | 57 | 0.0 | 0.0 | 0.00 | 0.00 | 0.00 | 72 | 1007.6 | |
| 20260506091602 | 57 | 0.0 | 0.0 | 0.00 | 0.00 | 0.00 | 73 | 1007.7 | |
| 20260506090602 | 57 | 0.0 | 0.0 | 0.00 | 0.00 | 0.00 | 71 | 1007.8 | |
| 20260506085602 | 57 | 0.0 | 0.0 | 0.00 | 0.00 | 0.00 | 72 | 1007.8 | |
| 20260506084602 | 57 | 0.0 | 0.0 | 0.00 | 0.00 | 0.00 | 71 | 1007.6 | |
| 20260506083602 | 56 | 0.0 | 0.0 | 0.00 | 0.00 | 0.00 | 71 | 1007.6 | |
| 20260506082602 | 56 | 0.0 | 0.0 | 0.00 | 0.00 | 0.00 | 72 | 1007.5 | |
| 20260506081603 | 55 | 0.0 | 0.0 | 0.00 | 0.00 | 0.00 | 75 | 1007.6 | |
| 20260506080603 | 55 | 0.0 | 0.0 | 0.00 | 0.00 | 0.00 | 76 | 1007.4 | |
| 20260506072603 | 56 | 0.0 | 0.0 | 0.00 | 0.00 | 0.00 | 76 | 1007.2 | |
| 20260506071603 | 56 | 0.0 | 0.0 | 0.00 | 0.00 | 0.00 | 75 | 1007.1 | |
| 20260506070603 | 54 | 0.0 | 0.0 | 0.00 | 0.00 | 0.00 | 80 | 1007.1 | |
| 20260506061603 | 54 | 0.0 | 0.0 | 0.00 | 0.00 | 0.00 | 82 | 1006.9 | |
| 20260506060603 | 53 | 0.0 | 0.0 | 0.00 | 0.00 | 0.00 | 82 | 1007.1 | |
| 20260506050603 | 52 | 0.0 | 0.0 | 0.00 | 0.00 | 0.00 | 84 | 1006.8 | |
| 20260506044603 | 52 | 0.0 | 0.0 | 0.00 | 0.00 | 0.00 | 86 | 1006.6 | |
| 20260506043603 | 52 | 0.0 | 0.0 | 0.00 | 0.00 | 0.00 | 85 | 1006.5 | |
| 20260506042603 | 52 | 0.0 | 0.0 | 0.00 | 0.00 | 0.00 | 86 | 1006.4 | |
| 20260506041603 | 53 | 0.0 | 0.0 | 0.00 | 0.00 | 0.00 | 84 | 1006.5 | |
| 20260506040603 | 52 | 0.0 | 0.0 | 0.00 | 0.00 | 0.00 | 87 | 1006.4 | |
| 20260506035603 | 53 | 0.0 | 0.0 | 0.00 | 0.00 | 0.00 | 89 | 1006.4 | |
| 20260506034603 | 52 | 0.0 | 0.0 | 0.00 | 0.00 | 0.00 | 89 | 1006.4 | |
| 20260506033603 | 53 | 0.0 | 0.0 | 0.00 | 0.00 | 0.00 | 90 | 1006.4 | |
| 20260506032603 | 52 | 0.0 | 0.0 | 0.00 | 0.00 | 0.00 | 90 | 1006.3 | |
| 20260506031606 | 52 | 0.0 | 0.0 | 0.00 | 0.00 | 0.00 | 90 | 1006.4 | |
| 20260506030601 | 52 | 0.0 | 0.0 | 0.00 | 0.00 | 0.00 | 91 | 1006.2 | |
| 20260506025601 | 52 | 0.0 | 0.0 | 0.00 | 0.00 | 0.00 | 91 | 1006.3 | |
| 20260506024601 | 52 | 0.0 | 0.0 | 0.00 | 0.00 | 0.00 | 91 | 1006.3 | |
| 20260506023602 | 52 | 0.0 | 0.0 | 0.00 | 0.00 | 0.00 | 90 | 1006.3 | |
| 20260506022601 | 52 | 0.0 | 0.0 | 0.00 | 0.00 | 0.00 | 91 | 1006.4 |